This is the latest recevied weather packets stored in our database for station/object AI5BL. If no packets are shown the sender has not sent any weather packets the latest 1 day(s).
| Time | Temp. | Humidity | Pressure | Rain* | Wind** | Luminosity | Snow |
|---|---|---|---|---|---|---|---|
| 1778018339 | 25.56° C | 67% | 1013.7 hPa | 0 mm | 0 m/s | 123 W/m² | - |
| 1778018036 | 25.56° C | 69% | 1013.6 hPa | 0 mm | 0 m/s | 107 W/m² | - |
| 1778017734 | 25.56° C | 66% | 1013.5 hPa | 0 mm | 0.45 m/s, 94° | 138 W/m² | - |
| 1778017431 | 25.56° C | 68% | 1013.6 hPa | 0 mm | 0 m/s | 153 W/m² | - |
| 1778017129 | 25.56° C | 69% | 1013.7 hPa | 0 mm | 0.89 m/s, 134° | 174 W/m² | - |
| 1778016827 | 26.11° C | 67% | 1013.8 hPa | 0 mm | 0.45 m/s, 84° | 150 W/m² | - |
| 1778016522 | 26.11° C | 70% | 1013.5 hPa | 0 mm | 0.89 m/s, 123° | 173 W/m² | - |
| 1778016219 | 26.11° C | 63% | 1013.7 hPa | 0 mm | 0 m/s | 137 W/m² | - |
| 1778015915 | 26.11° C | 62% | 1013.8 hPa | 0 mm | 0.89 m/s, 129° | 196 W/m² | - |
| 1778015613 | 26.11° C | 66% | 1013.7 hPa | 0 mm | 0.45 m/s, 77° | 208 W/m² | - |
| 1778015310 | 26.11° C | 66% | 1013.7 hPa | 0 mm | 0.45 m/s, 66° | 216 W/m² | - |
| 1778015007 | 26.11° C | 71% | 1013.5 hPa | 0 mm | 0.45 m/s, 128° | 235 W/m² | - |
| 1778014703 | 26.67° C | 65% | 1013.8 hPa | 0 mm | 1.34 m/s, 11° | 261 W/m² | - |
| 1778014402 | 26.11° C | 69% | 1013.6 hPa | 0 mm | 0 m/s | 237 W/m² | - |
| 1778014098 | 26.11° C | 65% | 1013.6 hPa | 0 mm | 0 m/s | 259 W/m² | - |
| 1778013796 | 26.11° C | 63% | 1013.6 hPa | 0 mm | 1.79 m/s, 104° | 229 W/m² | - |
| 1778013493 | 25.56° C | 67% | 1013.6 hPa | 0 mm | 0 m/s | 242 W/m² | - |
| 1778013190 | 26.11° C | 63% | 1013.8 hPa | 0 mm | 0.45 m/s, 123° | 184 W/m² | - |
| 1778012886 | 26.11° C | 63% | 1013.8 hPa | 0 mm | 0 m/s | 196 W/m² | - |
| 1778012582 | 26.11° C | 68% | 1014 hPa | 0 mm | 0 m/s | 194 W/m² | - |
| 1778012279 | 26.11° C | 65% | 1013.8 hPa | 0 mm | 0.89 m/s, 81° | 255 W/m² | - |
| 1778011976 | 26.11° C | 69% | 1014 hPa | 0 mm | 0 m/s | 256 W/m² | - |
| 1778011675 | 26.11° C | 67% | 1014 hPa | 0 mm | 0 m/s | 212 W/m² | - |
| 1778011371 | 25.56° C | 70% | 1014.3 hPa | 0 mm | 0.89 m/s, 152° | 204 W/m² | - |
| 1778011067 | 26.11° C | 65% | 1014.2 hPa | 0 mm | 0.45 m/s, 138° | 157 W/m² | - |
* Rain latest hour (hover to see other rain measurements)
** Current wind speed in m/s (hover to see current wind gust speed)